sensor_id;sensor_type;location;lat;lon;timestamp;pressure;altitude;pressure_sealevel;temperature;humidity
5146;BME280;2591;48.144;15.152;2023-01-28T00:00:53;77709.63;;;-144.65;100.00
5146;BME280;2591;48.144;15.152;2023-01-28T00:03:21;77709.63;;;-144.65;100.00
5146;BME280;2591;48.144;15.152;2023-01-28T00:05:50;77711.66;;;-144.65;100.00
5146;BME280;2591;48.144;15.152;2023-01-28T00:08:19;77711.66;;;-144.65;100.00
5146;BME280;2591;48.144;15.152;2023-01-28T00:10:47;77709.63;;;-144.65;100.00
5146;BME280;2591;48.144;15.152;2023-01-28T00:13:16;77707.59;;;-144.65;100.00
5146;BME280;2591;48.144;15.152;2023-01-28T00:15:44;77709.63;;;-144.65;100.00
5146;BME280;2591;48.144;15.152;2023-01-28T00:18:12;77711.66;;;-144.65;100.00
5146;BME280;2591;48.144;15.152;2023-01-28T00:20:40;77707.59;;;-144.65;100.00
5146;BME280;2591;48.144;15.152;2023-01-28T00:23:08;77701.47;;;-144.65;100.00
5146;BME280;2591;48.144;15.152;2023-01-28T00:25:36;77701.47;;;-144.65;100.00
5146;BME280;2591;48.144;15.152;2023-01-28T00:28:04;77707.59;;;-144.65;100.00
5146;BME280;2591;48.144;15.152;2023-01-28T00:30:33;77701.47;;;-144.65;100.00
5146;BME280;2591;48.144;15.152;2023-01-28T00:33:02;77701.47;;;-144.65;100.00
5146;BME280;2591;48.144;15.152;2023-01-28T00:35:30;77703.50;;;-144.65;100.00
5146;BME280;2591;48.144;15.152;2023-01-28T00:37:58;77701.47;;;-144.65;100.00
5146;BME280;2591;48.144;15.152;2023-01-28T00:40:26;77705.56;;;-144.65;100.00
5146;BME280;2591;48.144;15.152;2023-01-28T00:42:54;77705.56;;;-144.65;100.00
5146;BME280;2591;48.144;15.152;2023-01-28T00:45:22;77705.56;;;-144.65;100.00
5146;BME280;2591;48.144;15.152;2023-01-28T00:47:51;77701.47;;;-144.65;100.00
5146;BME280;2591;48.144;15.152;2023-01-28T00:50:19;77701.47;;;-144.65;100.00
5146;BME280;2591;48.144;15.152;2023-01-28T00:52:47;77701.47;;;-144.65;100.00
5146;BME280;2591;48.144;15.152;2023-01-28T00:55:15;77707.59;;;-144.65;100.00
5146;BME280;2591;48.144;15.152;2023-01-28T00:57:43;77705.56;;;-144.65;100.00
5146;BME280;2591;48.144;15.152;2023-01-28T01:00:11;77701.47;;;-144.65;100.00
5146;BME280;2591;48.144;15.152;2023-01-28T01:02:39;77701.47;;;-144.65;100.00
5146;BME280;2591;48.144;15.152;2023-01-28T01:05:09;77697.41;;;-144.65;100.00
5146;BME280;2591;48.144;15.152;2023-01-28T01:07:37;77693.31;;;-144.65;100.00
5146;BME280;2591;48.144;15.152;2023-01-28T01:10:11;77701.47;;;-144.65;100.00
5146;BME280;2591;48.144;15.152;2023-01-28T01:12:39;77699.44;;;-144.65;100.00
5146;BME280;2591;48.144;15.152;2023-01-28T01:15:08;77705.56;;;-144.65;100.00
5146;BME280;2591;48.144;15.152;2023-01-28T01:17:37;77709.63;;;-144.65;100.00
5146;BME280;2591;48.144;15.152;2023-01-28T01:20:10;77715.75;;;-144.65;100.00
5146;BME280;2591;48.144;15.152;2023-01-28T01:22:39;77709.63;;;-144.65;100.00
5146;BME280;2591;48.144;15.152;2023-01-28T01:25:08;77723.91;;;-144.65;100.00
5146;BME280;2591;48.144;15.152;2023-01-28T01:27:36;77715.75;;;-144.65;100.00
5146;BME280;2591;48.144;15.152;2023-01-28T01:30:06;77721.88;;;-144.65;100.00
5146;BME280;2591;48.144;15.152;2023-01-28T01:32:35;77717.78;;;-144.65;100.00
5146;BME280;2591;48.144;15.152;2023-01-28T01:35:04;77719.84;;;-144.65;100.00
5146;BME280;2591;48.144;15.152;2023-01-28T01:37:36;77721.88;;;-144.65;100.00
5146;BME280;2591;48.144;15.152;2023-01-28T01:40:05;77717.78;;;-144.65;100.00
5146;BME280;2591;48.144;15.152;2023-01-28T01:42:33;77719.84;;;-144.65;100.00
5146;BME280;2591;48.144;15.152;2023-01-28T01:45:05;77730.03;;;-144.65;100.00
5146;BME280;2591;48.144;15.152;2023-01-28T01:47:39;77730.03;;;-144.65;100.00
5146;BME280;2591;48.144;15.152;2023-01-28T01:50:13;77719.84;;;-144.65;100.00
5146;BME280;2591;48.144;15.152;2023-01-28T01:52:45;77719.84;;;-144.65;100.00
5146;BME280;2591;48.144;15.152;2023-01-28T01:55:18;77713.72;;;-144.65;100.00
5146;BME280;2591;48.144;15.152;2023-01-28T01:57:48;77725.94;;;-144.65;100.00
5146;BME280;2591;48.144;15.152;2023-01-28T02:00:19;77721.88;;;-144.65;100.00
5146;BME280;2591;48.144;15.152;2023-01-28T02:02:48;77721.88;;;-144.65;100.00
5146;BME280;2591;48.144;15.152;2023-01-28T02:05:19;77721.88;;;-144.65;100.00
5146;BME280;2591;48.144;15.152;2023-01-28T02:07:51;77721.88;;;-144.65;100.00
5146;BME280;2591;48.144;15.152;2023-01-28T02:10:41;77725.94;;;-144.65;100.00
5146;BME280;2591;48.144;15.152;2023-01-28T02:13:10;77725.94;;;-144.65;100.00
5146;BME280;2591;48.144;15.152;2023-01-28T02:15:38;77721.88;;;-144.65;100.00
5146;BME280;2591;48.144;15.152;2023-01-28T02:18:06;77723.91;;;-144.65;100.00
5146;BME280;2591;48.144;15.152;2023-01-28T02:20:44;77730.03;;;-144.65;100.00
5146;BME280;2591;48.144;15.152;2023-01-28T02:23:30;77734.09;;;-144.65;100.00
5146;BME280;2591;48.144;15.152;2023-01-28T02:26:25;77738.19;;;-144.65;100.00
5146;BME280;2591;48.144;15.152;2023-01-28T02:29:02;77730.03;;;-144.65;100.00
5146;BME280;2591;48.144;15.152;2023-01-28T02:31:37;77730.03;;;-144.65;100.00
5146;BME280;2591;48.144;15.152;2023-01-28T02:34:14;77730.03;;;-144.65;100.00
5146;BME280;2591;48.144;15.152;2023-01-28T02:36:49;77725.94;;;-144.65;100.00
5146;BME280;2591;48.144;15.152;2023-01-28T02:39:23;77734.09;;;-144.65;100.00
5146;BME280;2591;48.144;15.152;2023-01-28T02:41:55;77730.03;;;-144.65;100.00
5146;BME280;2591;48.144;15.152;2023-01-28T02:44:24;77738.19;;;-144.65;100.00
5146;BME280;2591;48.144;15.152;2023-01-28T02:46:53;77750.44;;;-144.65;100.00
5146;BME280;2591;48.144;15.152;2023-01-28T02:49:41;77756.53;;;-144.65;100.00
5146;BME280;2591;48.144;15.152;2023-01-28T02:52:19;77766.75;;;-144.65;100.00
5146;BME280;2591;48.144;15.152;2023-01-28T02:55:16;77770.81;;;-144.65;100.00
5146;BME280;2591;48.144;15.152;2023-01-28T02:58:05;77762.66;;;-144.65;100.00
5146;BME280;2591;48.144;15.152;2023-01-28T03:00:43;77756.53;;;-144.65;100.00
5146;BME280;2591;48.144;15.152;2023-01-28T03:03:17;77752.47;;;-144.65;100.00
5146;BME280;2591;48.144;15.152;2023-01-28T03:05:50;77754.50;;;-144.65;100.00
5146;BME280;2591;48.144;15.152;2023-01-28T03:08:34;77750.44;;;-144.65;100.00
5146;BME280;2591;48.144;15.152;2023-01-28T03:11:20;77748.38;;;-144.65;100.00
5146;BME280;2591;48.144;15.152;2023-01-28T03:14:07;77742.28;;;-144.65;100.00
5146;BME280;2591;48.144;15.152;2023-01-28T03:16:56;77740.22;;;-144.65;100.00
5146;BME280;2591;48.144;15.152;2023-01-28T03:19:44;77750.44;;;-144.65;100.00
5146;BME280;2591;48.144;15.152;2023-01-28T03:22:31;77738.19;;;-144.65;100.00
5146;BME280;2591;48.144;15.152;2023-01-28T03:25:19;77732.06;;;-144.65;100.00
5146;BME280;2591;48.144;15.152;2023-01-28T03:28:09;77734.09;;;-144.65;100.00
5146;BME280;2591;48.144;15.152;2023-01-28T03:31:02;77738.19;;;-144.65;100.00
5146;BME280;2591;48.144;15.152;2023-01-28T03:33:50;77742.28;;;-144.65;100.00
5146;BME280;2591;48.144;15.152;2023-01-28T03:36:38;77738.19;;;-144.65;100.00
5146;BME280;2591;48.144;15.152;2023-01-28T03:39:22;77730.03;;;-144.65;100.00
5146;BME280;2591;48.144;15.152;2023-01-28T03:41:56;77734.09;;;-144.65;100.00
5146;BME280;2591;48.144;15.152;2023-01-28T03:44:24;77738.19;;;-144.65;100.00
5146;BME280;2591;48.144;15.152;2023-01-28T03:47:10;77752.47;;;-144.65;100.00
5146;BME280;2591;48.144;15.152;2023-01-28T03:49:40;77750.44;;;-144.65;100.00
5146;BME280;2591;48.144;15.152;2023-01-28T03:52:11;77750.44;;;-144.65;100.00
5146;BME280;2591;48.144;15.152;2023-01-28T03:54:39;77750.44;;;-144.65;100.00
5146;BME280;2591;48.144;15.152;2023-01-28T03:57:07;77746.34;;;-144.65;100.00
5146;BME280;2591;48.144;15.152;2023-01-28T03:59:35;77742.28;;;-144.65;100.00
5146;BME280;2591;48.144;15.152;2023-01-28T04:02:03;77742.28;;;-144.65;100.00
5146;BME280;2591;48.144;15.152;2023-01-28T04:04:31;77742.28;;;-144.65;100.00
5146;BME280;2591;48.144;15.152;2023-01-28T04:07:01;77746.34;;;-144.65;100.00
5146;BME280;2591;48.144;15.152;2023-01-28T04:09:29;77746.34;;;-144.65;100.00
5146;BME280;2591;48.144;15.152;2023-01-28T04:11:57;77744.31;;;-144.65;100.00
5146;BME280;2591;48.144;15.152;2023-01-28T04:14:26;77748.38;;;-144.65;100.00
5146;BME280;2591;48.144;15.152;2023-01-28T04:16:54;77750.44;;;-144.65;100.00
5146;BME280;2591;48.144;15.152;2023-01-28T04:19:23;77742.28;;;-144.65;100.00
5146;BME280;2591;48.144;15.152;2023-01-28T04:21:51;77738.19;;;-144.65;100.00
5146;BME280;2591;48.144;15.152;2023-01-28T04:24:22;77742.28;;;-144.65;100.00
5146;BME280;2591;48.144;15.152;2023-01-28T04:26:50;77738.19;;;-144.65;100.00
5146;BME280;2591;48.144;15.152;2023-01-28T04:29:21;77740.22;;;-144.65;100.00
5146;BME280;2591;48.144;15.152;2023-01-28T04:31:48;77742.28;;;-144.65;100.00
5146;BME280;2591;48.144;15.152;2023-01-28T04:34:16;77750.44;;;-144.65;100.00
5146;BME280;2591;48.144;15.152;2023-01-28T04:36:46;77750.44;;;-144.65;100.00
5146;BME280;2591;48.144;15.152;2023-01-28T04:39:13;77758.59;;;-144.65;100.00
5146;BME280;2591;48.144;15.152;2023-01-28T04:41:43;77750.44;;;-144.65;100.00
5146;BME280;2591;48.144;15.152;2023-01-28T04:44:12;77750.44;;;-144.65;100.00
5146;BME280;2591;48.144;15.152;2023-01-28T04:46:42;77754.50;;;-144.65;100.00
5146;BME280;2591;48.144;15.152;2023-01-28T04:49:10;77764.72;;;-144.65;100.00
5146;BME280;2591;48.144;15.152;2023-01-28T04:51:38;77764.72;;;-144.65;100.00
5146;BME280;2591;48.144;15.152;2023-01-28T04:54:06;77768.78;;;-144.65;100.00
5146;BME280;2591;48.144;15.152;2023-01-28T04:56:34;77770.81;;;-144.65;100.00
5146;BME280;2591;48.144;15.152;2023-01-28T04:59:03;77770.81;;;-144.65;100.00
5146;BME280;2591;48.144;15.152;2023-01-28T05:01:31;77774.91;;;-144.65;100.00
5146;BME280;2591;48.144;15.152;2023-01-28T05:03:59;77768.78;;;-144.65;100.00
5146;BME280;2591;48.144;15.152;2023-01-28T05:06:31;77774.91;;;-144.65;100.00
5146;BME280;2591;48.144;15.152;2023-01-28T05:08:59;77770.81;;;-144.65;100.00
5146;BME280;2591;48.144;15.152;2023-01-28T05:11:26;77770.81;;;-144.65;100.00
5146;BME280;2591;48.144;15.152;2023-01-28T05:13:55;77774.91;;;-144.65;100.00
5146;BME280;2591;48.144;15.152;2023-01-28T05:16:24;77774.91;;;-144.65;100.00
5146;BME280;2591;48.144;15.152;2023-01-28T05:18:52;77772.88;;;-144.65;100.00
5146;BME280;2591;48.144;15.152;2023-01-28T05:21:20;77783.06;;;-144.65;100.00
5146;BME280;2591;48.144;15.152;2023-01-28T05:23:48;77774.91;;;-144.65;100.00
5146;BME280;2591;48.144;15.152;2023-01-28T05:26:15;77781.03;;;-144.65;100.00
5146;BME280;2591;48.144;15.152;2023-01-28T05:28:44;77778.97;;;-144.65;100.00
5146;BME280;2591;48.144;15.152;2023-01-28T05:31:12;77783.06;;;-144.65;100.00
5146;BME280;2591;48.144;15.152;2023-01-28T05:33:41;77783.06;;;-144.65;100.00
5146;BME280;2591;48.144;15.152;2023-01-28T05:36:10;77783.06;;;-144.65;100.00
5146;BME280;2591;48.144;15.152;2023-01-28T05:38:38;77776.94;;;-144.65;100.00
5146;BME280;2591;48.144;15.152;2023-01-28T05:41:06;77776.94;;;-144.65;100.00
5146;BME280;2591;48.144;15.152;2023-01-28T05:43:33;77778.97;;;-144.65;100.00
5146;BME280;2591;48.144;15.152;2023-01-28T05:46:01;77791.22;;;-144.65;100.00
5146;BME280;2591;48.144;15.152;2023-01-28T05:48:29;77785.09;;;-144.65;100.00
5146;BME280;2591;48.144;15.152;2023-01-28T05:50:59;77783.06;;;-144.65;100.00
5146;BME280;2591;48.144;15.152;2023-01-28T05:53:27;77789.19;;;-144.65;100.00
5146;BME280;2591;48.144;15.152;2023-01-28T05:55:55;77787.16;;;-144.65;100.00
5146;BME280;2591;48.144;15.152;2023-01-28T05:58:24;77783.06;;;-144.65;100.00
5146;BME280;2591;48.144;15.152;2023-01-28T06:00:53;77783.06;;;-144.65;100.00
5146;BME280;2591;48.144;15.152;2023-01-28T06:03:21;77789.19;;;-144.65;100.00
5146;BME280;2591;48.144;15.152;2023-01-28T06:05:49;77787.16;;;-144.65;100.00
5146;BME280;2591;48.144;15.152;2023-01-28T06:08:18;77787.16;;;-144.65;100.00
5146;BME280;2591;48.144;15.152;2023-01-28T06:10:46;77789.19;;;-144.65;100.00
5146;BME280;2591;48.144;15.152;2023-01-28T06:13:15;77787.16;;;-144.65;100.00
5146;BME280;2591;48.144;15.152;2023-01-28T06:15:42;77789.19;;;-144.65;100.00
5146;BME280;2591;48.144;15.152;2023-01-28T06:18:10;77789.19;;;-144.65;100.00
5146;BME280;2591;48.144;15.152;2023-01-28T06:20:38;77795.31;;;-144.65;100.00
5146;BME280;2591;48.144;15.152;2023-01-28T06:23:06;77791.22;;;-144.65;100.00
5146;BME280;2591;48.144;15.152;2023-01-28T06:25:35;77797.34;;;-144.65;100.00
5146;BME280;2591;48.144;15.152;2023-01-28T06:28:04;77799.38;;;-144.65;100.00
5146;BME280;2591;48.144;15.152;2023-01-28T06:30:32;77801.41;;;-144.65;100.00
5146;BME280;2591;48.144;15.152;2023-01-28T06:33:00;77803.47;;;-144.65;100.00
5146;BME280;2591;48.144;15.152;2023-01-28T06:35:28;77803.47;;;-144.65;100.00
5146;BME280;2591;48.144;15.152;2023-01-28T06:37:56;77803.47;;;-144.65;100.00
5146;BME280;2591;48.144;15.152;2023-01-28T06:40:24;77805.50;;;-144.65;100.00
5146;BME280;2591;48.144;15.152;2023-01-28T06:42:53;77811.63;;;-144.65;100.00
5146;BME280;2591;48.144;15.152;2023-01-28T06:45:21;77815.69;;;-144.65;100.00
5146;BME280;2591;48.144;15.152;2023-01-28T06:47:48;77815.69;;;-144.65;100.00
5146;BME280;2591;48.144;15.152;2023-01-28T06:50:18;77811.63;;;-144.65;100.00
5146;BME280;2591;48.144;15.152;2023-01-28T06:52:46;77811.63;;;-144.65;100.00
5146;BME280;2591;48.144;15.152;2023-01-28T06:55:14;77813.66;;;-144.65;100.00
5146;BME280;2591;48.144;15.152;2023-01-28T06:57:42;77815.69;;;-144.65;100.00
5146;BME280;2591;48.144;15.152;2023-01-28T07:00:12;77815.69;;;-144.65;100.00
5146;BME280;2591;48.144;15.152;2023-01-28T07:02:43;77807.53;;;-144.65;100.00
5146;BME280;2591;48.144;15.152;2023-01-28T07:05:11;77811.63;;;-144.65;100.00
5146;BME280;2591;48.144;15.152;2023-01-28T07:07:39;77811.63;;;-144.65;100.00
5146;BME280;2591;48.144;15.152;2023-01-28T07:10:09;77811.63;;;-144.65;100.00
5146;BME280;2591;48.144;15.152;2023-01-28T07:12:38;77803.47;;;-144.65;100.00
5146;BME280;2591;48.144;15.152;2023-01-28T07:15:06;77805.50;;;-144.65;100.00
5146;BME280;2591;48.144;15.152;2023-01-28T07:17:39;77799.38;;;-144.65;100.00
5146;BME280;2591;48.144;15.152;2023-01-28T07:20:09;77795.31;;;-144.65;100.00
5146;BME280;2591;48.144;15.152;2023-01-28T07:22:39;77791.22;;;-144.65;100.00
5146;BME280;2591;48.144;15.152;2023-01-28T07:25:09;77793.25;;;-144.65;100.00
5146;BME280;2591;48.144;15.152;2023-01-28T07:27:37;77785.09;;;-144.65;100.00
5146;BME280;2591;48.144;15.152;2023-01-28T07:30:07;77783.06;;;-144.65;100.00
5146;BME280;2591;48.144;15.152;2023-01-28T07:32:35;77781.03;;;-144.65;100.00
5146;BME280;2591;48.144;15.152;2023-01-28T07:35:05;77778.97;;;-144.65;100.00
5146;BME280;2591;48.144;15.152;2023-01-28T07:37:33;77774.91;;;-144.65;100.00
5146;BME280;2591;48.144;15.152;2023-01-28T07:40:01;77770.81;;;-144.65;100.00
5146;BME280;2591;48.144;15.152;2023-01-28T07:42:29;77770.81;;;-144.65;100.00
5146;BME280;2591;48.144;15.152;2023-01-28T07:44:57;77770.81;;;-144.65;100.00
5146;BME280;2591;48.144;15.152;2023-01-28T07:47:25;77783.06;;;-144.65;100.00
5146;BME280;2591;48.144;15.152;2023-01-28T07:49:53;77781.03;;;-144.65;100.00
5146;BME280;2591;48.144;15.152;2023-01-28T07:52:23;77778.97;;;-144.65;100.00
5146;BME280;2591;48.144;15.152;2023-01-28T07:54:50;77774.91;;;-144.65;100.00
5146;BME280;2591;48.144;15.152;2023-01-28T07:57:19;77770.81;;;-144.65;100.00
5146;BME280;2591;48.144;15.152;2023-01-28T07:59:49;77762.66;;;-144.65;100.00
5146;BME280;2591;48.144;15.152;2023-01-28T08:02:17;77762.66;;;-144.65;100.00
5146;BME280;2591;48.144;15.152;2023-01-28T08:04:45;77770.81;;;-144.65;100.00
5146;BME280;2591;48.144;15.152;2023-01-28T08:07:14;77770.81;;;-144.65;100.00
5146;BME280;2591;48.144;15.152;2023-01-28T08:09:43;77778.97;;;-144.65;100.00
5146;BME280;2591;48.144;15.152;2023-01-28T08:12:11;77781.03;;;-144.65;100.00
5146;BME280;2591;48.144;15.152;2023-01-28T08:14:39;77781.03;;;-144.65;100.00
5146;BME280;2591;48.144;15.152;2023-01-28T08:17:07;77778.97;;;-144.65;100.00
5146;BME280;2591;48.144;15.152;2023-01-28T08:19:35;77772.88;;;-144.65;100.00
5146;BME280;2591;48.144;15.152;2023-01-28T08:22:03;77770.81;;;-144.65;100.00
5146;BME280;2591;48.144;15.152;2023-01-28T08:24:30;77774.91;;;-144.65;100.00
5146;BME280;2591;48.144;15.152;2023-01-28T08:27:01;77768.78;;;-144.65;100.00
5146;BME280;2591;48.144;15.152;2023-01-28T08:29:29;77768.78;;;-144.65;100.00
5146;BME280;2591;48.144;15.152;2023-01-28T08:31:57;77762.66;;;-144.65;100.00
5146;BME280;2591;48.144;15.152;2023-01-28T08:34:25;77762.66;;;-144.65;100.00
5146;BME280;2591;48.144;15.152;2023-01-28T08:36:53;77762.66;;;-144.65;100.00
5146;BME280;2591;48.144;15.152;2023-01-28T08:39:20;77760.63;;;-144.65;100.00
5146;BME280;2591;48.144;15.152;2023-01-28T08:41:48;77758.59;;;-144.65;100.00
5146;BME280;2591;48.144;15.152;2023-01-28T08:44:17;77750.44;;;-144.65;100.00
5146;BME280;2591;48.144;15.152;2023-01-28T08:46:45;77750.44;;;-144.65;100.00
5146;BME280;2591;48.144;15.152;2023-01-28T08:49:13;77746.34;;;-144.65;100.00
5146;BME280;2591;48.144;15.152;2023-01-28T08:51:41;77742.28;;;-144.65;100.00
5146;BME280;2591;48.144;15.152;2023-01-28T08:54:09;77742.28;;;-144.65;100.00
5146;BME280;2591;48.144;15.152;2023-01-28T08:56:37;77746.34;;;-144.65;100.00
5146;BME280;2591;48.144;15.152;2023-01-28T08:59:08;77740.22;;;-144.65;100.00
5146;BME280;2591;48.144;15.152;2023-01-28T09:01:37;77734.09;;;-144.65;100.00
5146;BME280;2591;48.144;15.152;2023-01-28T09:04:06;77742.28;;;-144.65;100.00
5146;BME280;2591;48.144;15.152;2023-01-28T09:06:34;77734.09;;;-144.65;100.00
5146;BME280;2591;48.144;15.152;2023-01-28T09:09:02;77734.09;;;-144.65;100.00
5146;BME280;2591;48.144;15.152;2023-01-28T09:11:30;77734.09;;;-144.65;100.00
5146;BME280;2591;48.144;15.152;2023-01-28T09:13:58;77738.19;;;-144.65;100.00
5146;BME280;2591;48.144;15.152;2023-01-28T09:16:26;77730.03;;;-144.65;100.00
5146;BME280;2591;48.144;15.152;2023-01-28T09:18:55;77730.03;;;-144.65;100.00
5146;BME280;2591;48.144;15.152;2023-01-28T09:21:23;77728.00;;;-144.65;100.00
5146;BME280;2591;48.144;15.152;2023-01-28T09:23:51;77721.88;;;-144.65;100.00
5146;BME280;2591;48.144;15.152;2023-01-28T09:26:22;77715.75;;;-144.65;100.00
5146;BME280;2591;48.144;15.152;2023-01-28T09:28:50;77717.78;;;-144.65;100.00
5146;BME280;2591;48.144;15.152;2023-01-28T09:31:18;77709.63;;;-144.65;100.00
5146;BME280;2591;48.144;15.152;2023-01-28T09:33:46;77717.78;;;-144.65;100.00
5146;BME280;2591;48.144;15.152;2023-01-28T09:36:22;77707.59;;;-144.65;100.00
5146;BME280;2591;48.144;15.152;2023-01-28T09:38:50;77711.66;;;-144.65;100.00
5146;BME280;2591;48.144;15.152;2023-01-28T09:41:24;77705.56;;;-144.65;100.00
5146;BME280;2591;48.144;15.152;2023-01-28T09:44:03;77709.63;;;-144.65;100.00
5146;BME280;2591;48.144;15.152;2023-01-28T09:46:33;77709.63;;;-144.65;100.00
5146;BME280;2591;48.144;15.152;2023-01-28T09:49:06;77707.59;;;-144.65;100.00
5146;BME280;2591;48.144;15.152;2023-01-28T09:51:40;77705.56;;;-144.65;100.00
5146;BME280;2591;48.144;15.152;2023-01-28T09:54:16;77711.66;;;-144.65;100.00
5146;BME280;2591;48.144;15.152;2023-01-28T09:56:47;77709.63;;;-144.65;100.00
5146;BME280;2591;48.144;15.152;2023-01-28T09:59:20;77697.41;;;-144.65;100.00
5146;BME280;2591;48.144;15.152;2023-01-28T10:01:53;77689.25;;;-144.65;100.00
5146;BME280;2591;48.144;15.152;2023-01-28T10:04:30;77693.31;;;-144.65;100.00
5146;BME280;2591;48.144;15.152;2023-01-28T10:07:14;77705.56;;;-144.65;100.00
5146;BME280;2591;48.144;15.152;2023-01-28T10:09:48;77705.56;;;-144.65;100.00
5146;BME280;2591;48.144;15.152;2023-01-28T10:15:27;77701.47;;;-144.65;100.00
5146;BME280;2591;48.144;15.152;2023-01-28T10:18:00;77713.72;;;-144.65;100.00
5146;BME280;2591;48.144;15.152;2023-01-28T10:20:47;77717.78;;;-144.65;100.00
5146;BME280;2591;48.144;15.152;2023-01-28T10:23:22;77713.72;;;-144.65;100.00
5146;BME280;2591;48.144;15.152;2023-01-28T10:25:54;77713.72;;;-144.65;100.00
5146;BME280;2591;48.144;15.152;2023-01-28T10:28:26;77717.78;;;-144.65;100.00
5146;BME280;2591;48.144;15.152;2023-01-28T10:30:54;77709.63;;;-144.65;100.00
5146;BME280;2591;48.144;15.152;2023-01-28T10:33:28;77717.78;;;-144.65;100.00
5146;BME280;2591;48.144;15.152;2023-01-28T10:35:57;77693.31;;;-144.65;100.00
5146;BME280;2591;48.144;15.152;2023-01-28T10:38:29;77699.44;;;-144.65;100.00
5146;BME280;2591;48.144;15.152;2023-01-28T10:41:00;77705.56;;;-144.65;100.00
5146;BME280;2591;48.144;15.152;2023-01-28T10:43:31;77713.72;;;-144.65;100.00
5146;BME280;2591;48.144;15.152;2023-01-28T10:46:02;77709.63;;;-144.65;100.00
5146;BME280;2591;48.144;15.152;2023-01-28T10:48:33;77691.28;;;-144.65;100.00
5146;BME280;2591;48.144;15.152;2023-01-28T10:51:04;77697.41;;;-144.65;100.00
5146;BME280;2591;48.144;15.152;2023-01-28T10:53:35;77709.63;;;-144.65;100.00
5146;BME280;2591;48.144;15.152;2023-01-28T10:56:05;77695.34;;;-144.65;100.00
5146;BME280;2591;48.144;15.152;2023-01-28T10:58:36;77685.16;;;-144.65;100.00
5146;BME280;2591;48.144;15.152;2023-01-28T11:01:14;77689.25;;;-144.65;100.00
5146;BME280;2591;48.144;15.152;2023-01-28T11:03:52;77677.00;;;-144.65;100.00
5146;BME280;2591;48.144;15.152;2023-01-28T11:06:28;77674.97;;;-144.65;100.00
5146;BME280;2591;48.144;15.152;2023-01-28T11:08:57;77677.00;;;-144.65;100.00
5146;BME280;2591;48.144;15.152;2023-01-28T11:11:27;77672.91;;;-144.65;100.00
5146;BME280;2591;48.144;15.152;2023-01-28T11:13:56;77681.06;;;-144.65;100.00
5146;BME280;2591;48.144;15.152;2023-01-28T11:16:26;77689.25;;;-144.65;100.00
5146;BME280;2591;48.144;15.152;2023-01-28T11:18:59;77689.25;;;-144.65;100.00
5146;BME280;2591;48.144;15.152;2023-01-28T11:21:30;77689.25;;;-144.65;100.00
5146;BME280;2591;48.144;15.152;2023-01-28T11:24:02;77693.31;;;-144.65;100.00
5146;BME280;2591;48.144;15.152;2023-01-28T11:26:34;77683.13;;;-144.65;100.00
5146;BME280;2591;48.144;15.152;2023-01-28T11:29:03;77685.16;;;-144.65;100.00
5146;BME280;2591;48.144;15.152;2023-01-28T11:31:38;77691.28;;;-144.65;100.00
5146;BME280;2591;48.144;15.152;2023-01-28T11:34:15;77693.31;;;-144.65;100.00
5146;BME280;2591;48.144;15.152;2023-01-28T11:36:49;77705.56;;;-144.65;100.00
5146;BME280;2591;48.144;15.152;2023-01-28T11:39:22;77689.25;;;-144.65;100.00
5146;BME280;2591;48.144;15.152;2023-01-28T11:41:52;77685.16;;;-144.65;100.00
5146;BME280;2591;48.144;15.152;2023-01-28T11:44:23;77681.06;;;-144.65;100.00
5146;BME280;2591;48.144;15.152;2023-01-28T11:47:08;77681.06;;;-144.65;100.00
5146;BME280;2591;48.144;15.152;2023-01-28T11:49:52;77681.06;;;-144.65;100.00
5146;BME280;2591;48.144;15.152;2023-01-28T11:52:35;77679.03;;;-144.65;100.00
5146;BME280;2591;48.144;15.152;2023-01-28T11:55:37;77687.19;;;-144.65;100.00
5146;BME280;2591;48.144;15.152;2023-01-28T11:58:17;77685.16;;;-144.65;100.00
5146;BME280;2591;48.144;15.152;2023-01-28T12:00:54;77677.00;;;-144.65;100.00
5146;BME280;2591;48.144;15.152;2023-01-28T12:03:46;77683.13;;;-144.65;100.00
5146;BME280;2591;48.144;15.152;2023-01-28T12:06:27;77681.06;;;-144.65;100.00
5146;BME280;2591;48.144;15.152;2023-01-28T12:09:09;77685.16;;;-144.65;100.00
5146;BME280;2591;48.144;15.152;2023-01-28T12:11:52;77672.91;;;-144.65;100.00
5146;BME280;2591;48.144;15.152;2023-01-28T12:15:04;77677.00;;;-144.65;100.00
5146;BME280;2591;48.144;15.152;2023-01-28T12:17:43;77674.97;;;-144.65;100.00
5146;BME280;2591;48.144;15.152;2023-01-28T12:20:18;77679.03;;;-144.65;100.00
5146;BME280;2591;48.144;15.152;2023-01-28T12:23:08;77687.19;;;-144.65;100.00
5146;BME280;2591;48.144;15.152;2023-01-28T12:25:58;77695.34;;;-144.65;100.00
5146;BME280;2591;48.144;15.152;2023-01-28T12:28:49;77699.44;;;-144.65;100.00
5146;BME280;2591;48.144;15.152;2023-01-28T12:31:35;77693.31;;;-144.65;100.00
5146;BME280;2591;48.144;15.152;2023-01-28T12:34:27;77707.59;;;-144.65;100.00
5146;BME280;2591;48.144;15.152;2023-01-28T12:37:05;77709.63;;;-144.65;100.00
5146;BME280;2591;48.144;15.152;2023-01-28T12:39:45;77715.75;;;-144.65;100.00
5146;BME280;2591;48.144;15.152;2023-01-28T12:42:22;77717.78;;;-144.65;100.00
5146;BME280;2591;48.144;15.152;2023-01-28T12:44:58;77717.78;;;-144.65;100.00
5146;BME280;2591;48.144;15.152;2023-01-28T12:47:33;77713.72;;;-144.65;100.00
5146;BME280;2591;48.144;15.152;2023-01-28T12:50:10;77725.94;;;-144.65;100.00
5146;BME280;2591;48.144;15.152;2023-01-28T12:52:43;77715.75;;;-144.65;100.00
5146;BME280;2591;48.144;15.152;2023-01-28T12:55:16;77719.84;;;-144.65;100.00
5146;BME280;2591;48.144;15.152;2023-01-28T12:57:46;77717.78;;;-144.65;100.00
5146;BME280;2591;48.144;15.152;2023-01-28T13:00:24;77713.72;;;-144.65;100.00
5146;BME280;2591;48.144;15.152;2023-01-28T13:03:00;77701.47;;;-144.65;100.00
5146;BME280;2591;48.144;15.152;2023-01-28T13:05:34;77705.56;;;-144.65;100.00
5146;BME280;2591;48.144;15.152;2023-01-28T13:08:10;77701.47;;;-144.65;100.00